createdAt,value
2019-03-06T00:00:12.307Z,7.08
2019-03-06T00:02:41.563Z,6.98
2019-03-06T00:08:06.317Z,6.84
2019-03-06T00:10:35.501Z,6.85
2019-03-06T00:13:04.712Z,6.88
2019-03-06T00:15:33.935Z,6.92
2019-03-06T00:18:03.345Z,7.01
2019-03-06T00:20:32.611Z,7.04
2019-03-06T00:23:02.276Z,7.12
2019-03-06T00:25:31.510Z,7.20
2019-03-06T00:28:00.717Z,7.22
2019-03-06T00:30:30.147Z,7.23
2019-03-06T00:32:59.648Z,7.31
2019-03-06T00:38:09.741Z,7.31
2019-03-06T00:40:58.202Z,7.29
2019-03-06T00:43:27.779Z,7.26
2019-03-06T00:45:57.011Z,7.25
2019-03-06T00:48:26.220Z,7.25
2019-03-06T00:50:55.470Z,7.19
2019-03-06T00:53:24.664Z,7.18
2019-03-06T00:55:54.178Z,7.23
2019-03-06T00:58:25.033Z,7.26
2019-03-06T01:00:54.653Z,7.36
2019-03-06T01:03:23.955Z,7.39
2019-03-06T01:05:53.209Z,7.45
2019-03-06T01:08:23.297Z,7.49
2019-03-06T01:10:52.531Z,7.44
2019-03-06T01:13:21.927Z,7.42
2019-03-06T01:19:05.197Z,7.46
2019-03-06T01:21:34.682Z,7.45
2019-03-06T01:24:03.921Z,7.43
2019-03-06T01:26:33.157Z,7.42
2019-03-06T01:29:02.384Z,7.48
2019-03-06T01:31:31.903Z,7.52
2019-03-06T01:34:20.289Z,7.55
2019-03-06T01:37:08.427Z,7.55
2019-03-06T01:39:56.768Z,7.50
2019-03-06T01:45:15.169Z,7.47
2019-03-06T01:47:44.396Z,7.56
2019-03-06T01:50:32.975Z,7.50
2019-03-06T01:53:02.194Z,7.46
2019-03-06T01:55:31.938Z,7.46
2019-03-06T01:58:01.198Z,7.43
2019-03-06T02:00:30.814Z,7.39
2019-03-06T02:03:00.056Z,7.40
2019-03-06T02:06:08.640Z,7.39
2019-03-06T02:08:37.874Z,7.40
2019-03-06T02:11:07.392Z,7.41
2019-03-06T02:13:36.651Z,7.44
2019-03-06T02:16:05.941Z,7.48
2019-03-06T02:18:35.201Z,7.45
2019-03-06T02:21:05.061Z,7.46
2019-03-06T02:23:34.352Z,7.41
2019-03-06T02:26:04.105Z,7.37
2019-03-06T02:28:33.756Z,7.36
2019-03-06T02:31:03.353Z,7.40
2019-03-06T02:33:32.596Z,7.42
2019-03-06T02:36:01.831Z,7.38
2019-03-06T02:38:31.505Z,7.44
2019-03-06T02:41:00.702Z,7.43
2019-03-06T02:43:29.960Z,7.54
2019-03-06T02:45:59.918Z,7.44
2019-03-06T02:48:29.178Z,7.39
2019-03-06T02:50:58.368Z,7.41
2019-03-06T02:53:27.591Z,7.40
2019-03-06T02:55:57.075Z,7.40
2019-03-06T03:01:27.715Z,7.26
2019-03-06T03:04:16.427Z,7.21
2019-03-06T03:06:49.578Z,7.14
2019-03-06T03:09:20.062Z,7.04
2019-03-06T03:11:49.272Z,6.95
2019-03-06T03:14:18.503Z,6.86
2019-03-06T03:16:47.683Z,6.83
2019-03-06T03:19:16.917Z,6.73
2019-03-06T03:21:46.132Z,6.69
2019-03-06T03:24:15.357Z,6.65
2019-03-06T03:26:44.810Z,6.60
2019-03-06T03:29:14.046Z,6.54
2019-03-06T03:31:43.272Z,6.52
2019-03-06T03:34:12.538Z,6.52
2019-03-06T03:36:41.755Z,6.58
2019-03-06T03:39:11.267Z,6.64
2019-03-06T03:41:40.599Z,6.69
2019-03-06T03:44:09.827Z,6.74
2019-03-06T03:46:39.355Z,6.74
2019-03-06T03:49:08.869Z,6.78
2019-03-06T03:51:38.394Z,6.76
2019-03-06T03:54:07.668Z,6.70
2019-03-06T03:56:36.863Z,6.75
2019-03-06T03:59:06.131Z,6.72
2019-03-06T04:01:35.329Z,6.69
2019-03-06T04:04:04.620Z,6.65
2019-03-06T04:06:33.820Z,6.59
2019-03-06T04:12:01.426Z,6.43
2019-03-06T04:14:30.643Z,6.41
2019-03-06T04:16:59.842Z,6.36
2019-03-06T04:19:29.052Z,6.30
2019-03-06T04:21:58.249Z,6.32
2019-03-06T04:24:27.740Z,6.25
2019-03-06T04:26:56.949Z,6.18
2019-03-06T04:29:26.155Z,6.20
2019-03-06T04:31:55.946Z,6.15
2019-03-06T04:34:25.494Z,6.07
2019-03-06T04:36:54.873Z,6.06
2019-03-06T04:39:24.383Z,6.08
2019-03-06T04:41:53.586Z,6.07
2019-03-06T04:44:23.052Z,6.07
2019-03-06T04:46:52.280Z,6.10
2019-03-06T04:49:21.658Z,6.09
2019-03-06T04:51:51.155Z,6.08
2019-03-06T04:54:20.441Z,6.01
2019-03-06T04:56:49.662Z,5.95
2019-03-06T04:59:18.902Z,5.90
2019-03-06T05:01:48.256Z,5.89
2019-03-06T05:04:17.458Z,5.85
2019-03-06T05:06:46.672Z,5.84
2019-03-06T05:09:15.881Z,5.75
2019-03-06T05:11:45.380Z,5.71
2019-03-06T05:14:14.649Z,5.65
2019-03-06T05:17:02.792Z,5.65
2019-03-06T05:19:32.303Z,5.61
2019-03-06T05:22:02.041Z,5.59
2019-03-06T05:24:31.241Z,5.63
2019-03-06T05:27:00.466Z,5.64
2019-03-06T05:29:29.943Z,5.71
2019-03-06T05:32:37.495Z,5.78
2019-03-06T05:35:13.348Z,5.91
2019-03-06T05:38:20.642Z,5.94
2019-03-06T05:40:49.858Z,5.94
2019-03-06T05:43:19.070Z,6.04
2019-03-06T05:45:48.529Z,6.08
2019-03-06T05:48:18.014Z,6.13
2019-03-06T05:50:47.229Z,6.19
2019-03-06T05:53:16.470Z,6.22
2019-03-06T05:55:45.698Z,6.25
2019-03-06T05:58:14.954Z,6.32
2019-03-06T06:00:44.577Z,6.41
2019-03-06T06:03:13.818Z,6.45
2019-03-06T06:05:43.315Z,6.49
2019-03-06T06:08:12.634Z,6.56
2019-03-06T06:10:41.838Z,6.55
2019-03-06T06:13:11.065Z,6.54
2019-03-06T06:15:40.580Z,6.51
2019-03-06T06:18:10.095Z,6.51
2019-03-06T06:20:39.628Z,6.51
2019-03-06T06:23:14.063Z,6.53
2019-03-06T06:25:43.573Z,6.56
2019-03-06T06:28:12.825Z,6.59
2019-03-06T06:30:42.025Z,6.62
2019-03-06T06:33:11.359Z,6.62
2019-03-06T06:35:40.564Z,6.62
2019-03-06T06:38:10.422Z,6.65
2019-03-06T06:40:39.626Z,6.67
2019-03-06T06:43:08.872Z,6.68
2019-03-06T06:45:38.097Z,6.67
2019-03-06T06:48:26.800Z,6.70
2019-03-06T06:51:17.277Z,6.72
2019-03-06T06:54:08.361Z,6.83
2019-03-06T06:57:15.654Z,6.91
2019-03-06T07:00:24.624Z,6.96
2019-03-06T07:03:51.229Z,7.07
2019-03-06T07:06:39.382Z,7.21
2019-03-06T07:09:27.997Z,7.29
2019-03-06T07:12:16.687Z,7.31
2019-03-06T07:15:05.918Z,7.32
2019-03-06T07:17:43.523Z,7.46
2019-03-06T07:20:31.651Z,7.54
2019-03-06T07:23:17.873Z,7.61
2019-03-06T07:26:06.286Z,7.71
2019-03-06T07:28:54.764Z,7.73
2019-03-06T07:31:43.441Z,7.79
2019-03-06T07:34:24.806Z,7.92
2019-03-06T07:36:58.634Z,8.00
2019-03-06T07:39:36.401Z,8.07
2019-03-06T07:42:24.523Z,8.37
2019-03-06T07:45:50.763Z,8.64
2019-03-06T07:48:27.161Z,8.62
2019-03-06T07:51:15.567Z,8.70
2019-03-06T07:54:09.552Z,8.67
2019-03-06T07:56:59.386Z,8.79
2019-03-06T07:59:29.928Z,8.97
2019-03-06T08:02:10.332Z,8.98
2019-03-06T08:04:39.617Z,9.05
2019-03-06T08:07:27.791Z,9.07
2019-03-06T08:09:57.084Z,9.14
2019-03-06T08:12:45.521Z,9.25
2019-03-06T08:15:34.146Z,9.44
2019-03-06T08:18:09.897Z,9.50
2019-03-06T08:20:58.044Z,9.55
2019-03-06T08:23:46.179Z,9.60
2019-03-06T08:26:15.423Z,9.68
2019-03-06T08:28:44.905Z,9.75
2019-03-06T08:31:33.364Z,9.74
2019-03-06T08:34:02.871Z,9.92
2019-03-06T08:36:32.406Z,9.99
2019-03-06T08:39:01.641Z,10.05
2019-03-06T08:41:31.150Z,10.35
2019-03-06T08:44:00.648Z,10.34
2019-03-06T08:46:38.283Z,10.36
2019-03-06T08:49:26.787Z,10.58
2019-03-06T08:55:11.186Z,10.78
2019-03-06T08:57:46.454Z,10.90
2019-03-06T09:00:55.444Z,11.11
2019-03-06T09:06:53.795Z,11.32
2019-03-06T09:09:42.228Z,11.15
2019-03-06T09:12:30.686Z,11.14
2019-03-06T09:15:18.790Z,11.15
2019-03-06T09:18:09.391Z,11.57
2019-03-06T09:20:57.074Z,11.56
2019-03-06T09:23:45.233Z,11.38
2019-03-06T09:26:33.717Z,11.04
2019-03-06T09:29:22.134Z,11.30
2019-03-06T09:32:10.625Z,11.42
2019-03-06T09:34:45.548Z,11.35
2019-03-06T09:37:33.772Z,11.12
2019-03-06T09:40:22.456Z,11.47
2019-03-06T09:43:11.434Z,11.41
2019-03-06T09:45:59.636Z,11.45
2019-03-06T09:48:47.810Z,11.58
2019-03-06T09:51:35.922Z,11.43
2019-03-06T09:57:17.465Z,11.36
2019-03-06T10:00:05.895Z,11.41
2019-03-06T10:02:46.370Z,11.27
2019-03-06T10:05:34.499Z,11.25
2019-03-06T10:08:22.934Z,11.50
2019-03-06T10:10:58.112Z,11.79
2019-03-06T10:13:46.286Z,11.66
2019-03-06T10:16:34.421Z,11.69
2019-03-06T10:21:59.533Z,11.45
2019-03-06T10:24:28.763Z,11.61
2019-03-06T10:26:58.240Z,11.58
2019-03-06T10:29:27.696Z,11.73
2019-03-06T10:31:57.273Z,11.83
2019-03-06T10:34:26.961Z,11.84
2019-03-06T10:36:56.180Z,11.92
2019-03-06T10:39:26.115Z,11.93
2019-03-06T10:41:55.328Z,11.93
2019-03-06T10:44:29.516Z,11.75
2019-03-06T10:46:55.977Z,11.90
2019-03-06T10:49:25.484Z,11.99
2019-03-06T10:51:54.682Z,12.05
2019-03-06T10:54:23.895Z,11.53
2019-03-06T10:56:53.423Z,11.66
2019-03-06T10:59:24.943Z,12.00
2019-03-06T11:01:54.279Z,11.95
2019-03-06T11:04:42.715Z,12.07
2019-03-06T11:10:23.664Z,11.94
2019-03-06T11:12:52.005Z,11.95
2019-03-06T11:15:21.638Z,11.76
2019-03-06T11:18:30.541Z,12.04
2019-03-06T11:20:59.807Z,12.22
2019-03-06T11:23:29.015Z,12.22
2019-03-06T11:25:58.528Z,12.26
2019-03-06T11:28:27.979Z,12.11
2019-03-06T11:31:36.582Z,12.18
2019-03-06T11:34:07.103Z,12.02
2019-03-06T11:36:36.328Z,12.05
2019-03-06T11:39:24.719Z,12.32
2019-03-06T11:41:54.656Z,12.33
2019-03-06T11:44:23.928Z,12.41
2019-03-06T11:46:53.186Z,12.52
2019-03-06T11:49:22.388Z,12.60
2019-03-06T11:51:51.700Z,12.54
2019-03-06T11:54:20.953Z,12.46
2019-03-06T11:56:50.499Z,12.77
2019-03-06T12:02:28.767Z,12.93
2019-03-06T12:04:58.007Z,12.69
2019-03-06T12:07:27.388Z,12.64
2019-03-06T12:09:56.762Z,12.65
2019-03-06T12:12:25.986Z,12.79
2019-03-06T12:14:55.360Z,12.63
2019-03-06T12:17:24.577Z,12.76
2019-03-06T12:20:33.174Z,12.66
2019-03-06T12:23:02.846Z,12.75
2019-03-06T12:25:32.524Z,12.62
2019-03-06T12:28:01.744Z,12.84
2019-03-06T12:30:31.238Z,12.75
2019-03-06T12:33:00.532Z,12.76
2019-03-06T12:35:29.756Z,12.81
2019-03-06T12:37:58.983Z,12.87
2019-03-06T12:41:07.612Z,12.69
2019-03-06T12:43:37.220Z,12.85
2019-03-06T12:46:26.099Z,12.89
2019-03-06T12:49:15.905Z,12.71
2019-03-06T12:51:53.859Z,12.73
2019-03-06T12:54:16.758Z,12.56
2019-03-06T12:57:05.717Z,12.55
2019-03-06T12:59:35.006Z,12.63
2019-03-06T13:02:06.348Z,12.58
2019-03-06T13:04:35.855Z,12.72
2019-03-06T13:07:05.481Z,12.88
2019-03-06T13:09:35.087Z,13.02
2019-03-06T13:12:06.947Z,13.13
2019-03-06T13:14:36.143Z,13.31
2019-03-06T13:17:05.488Z,13.35
2019-03-06T13:19:59.029Z,13.19
2019-03-06T13:22:28.450Z,13.25
2019-03-06T13:24:57.706Z,13.13
2019-03-06T13:30:01.542Z,12.75
2019-03-06T13:35:20.020Z,12.77
2019-03-06T13:37:49.789Z,12.72
2019-03-06T13:40:19.055Z,12.89
2019-03-06T13:42:48.340Z,12.94
2019-03-06T13:45:18.380Z,12.95
2019-03-06T13:47:47.626Z,12.77
2019-03-06T13:50:17.171Z,12.82
2019-03-06T13:52:46.545Z,12.96
2019-03-06T13:58:09.768Z,12.93
2019-03-06T14:00:40.093Z,12.78
2019-03-06T14:06:06.475Z,12.82
2019-03-06T14:08:36.570Z,12.74
2019-03-06T14:11:25.449Z,12.63
2019-03-06T14:13:54.946Z,12.77
2019-03-06T14:16:24.987Z,12.96
2019-03-06T14:19:29.614Z,12.95
2019-03-06T14:27:23.358Z,12.78
2019-03-06T14:30:20.766Z,12.85
2019-03-06T14:35:46.076Z,12.81
2019-03-06T14:46:49.754Z,12.90
2019-03-06T14:49:18.997Z,12.81
2019-03-06T14:51:49.120Z,13.05
2019-03-06T14:54:18.511Z,13.20
2019-03-06T14:56:47.832Z,13.35
2019-03-06T14:59:17.655Z,13.38
2019-03-06T15:01:46.869Z,13.36
2019-03-06T15:04:16.416Z,13.33
2019-03-06T15:06:45.976Z,13.22
2019-03-06T15:09:58.293Z,13.33
2019-03-06T15:12:27.676Z,13.21
2019-03-06T15:14:56.946Z,13.16
2019-03-06T15:17:26.438Z,13.14
2019-03-06T15:19:56.020Z,13.27
2019-03-06T15:22:25.249Z,13.50
2019-03-06T15:24:55.043Z,13.40
2019-03-06T15:27:24.703Z,13.32
2019-03-06T15:29:54.342Z,13.33
2019-03-06T15:32:24.092Z,13.40
2019-03-06T15:34:53.702Z,13.31
2019-03-06T15:37:43.590Z,13.26
2019-03-06T15:43:13.748Z,13.21
2019-03-06T15:45:43.016Z,13.21
2019-03-06T15:48:12.377Z,13.13
2019-03-06T15:50:41.737Z,13.15
2019-03-06T15:53:31.001Z,13.15
2019-03-06T15:56:00.335Z,13.16
2019-03-06T15:58:30.034Z,13.26
2019-03-06T16:00:59.495Z,13.21
2019-03-06T16:03:28.771Z,13.17
2019-03-06T16:05:58.045Z,13.26
2019-03-06T16:08:48.554Z,13.29
2019-03-06T16:11:19.737Z,13.31
2019-03-06T16:13:49.230Z,13.14
2019-03-06T16:16:18.461Z,13.11
2019-03-06T16:18:48.222Z,13.12
2019-03-06T16:21:17.456Z,13.05
2019-03-06T16:23:47.128Z,13.19
2019-03-06T16:26:16.382Z,13.09
2019-03-06T16:28:45.640Z,13.11
2019-03-06T16:34:10.684Z,13.06
2019-03-06T16:36:41.488Z,12.96
2019-03-06T16:39:11.123Z,12.86
2019-03-06T16:41:41.056Z,12.93
2019-03-06T16:44:10.761Z,12.87
2019-03-06T17:06:18.225Z,12.68
2019-03-06T17:09:08.199Z,12.64
2019-03-06T17:11:57.588Z,12.49
2019-03-06T17:14:45.891Z,12.64
2019-03-06T17:17:15.472Z,12.57
2019-03-06T17:19:45.128Z,12.55
2019-03-06T17:22:14.552Z,12.42
2019-03-06T17:24:43.925Z,12.22
2019-03-06T17:27:14.199Z,12.17
2019-03-06T17:29:44.730Z,12.12
2019-03-06T17:32:14.149Z,12.21
2019-03-06T17:34:44.292Z,12.10
2019-03-06T17:37:14.304Z,11.93
2019-03-06T17:40:03.898Z,11.96
2019-03-06T17:42:52.341Z,11.87
2019-03-06T17:45:21.686Z,11.83
2019-03-06T17:47:51.020Z,11.77
2019-03-06T17:50:20.844Z,11.75
2019-03-06T17:52:50.687Z,11.82
2019-03-06T17:55:39.509Z,11.73
2019-03-06T17:58:08.955Z,11.75
2019-03-06T18:09:12.712Z,11.71
2019-03-06T18:11:42.829Z,11.62
2019-03-06T18:14:15.048Z,11.76
2019-03-06T18:16:44.991Z,11.68
2019-03-06T18:19:20.710Z,11.68
2019-03-06T18:21:50.630Z,11.62
2019-03-06T18:24:20.640Z,11.61
2019-03-06T18:26:51.194Z,11.55
2019-03-06T18:29:20.968Z,11.49
2019-03-06T18:37:55.439Z,11.48
2019-03-06T18:43:38.894Z,11.46
2019-03-06T18:46:08.425Z,11.47
2019-03-06T18:48:37.721Z,11.45
2019-03-06T18:51:07.477Z,11.44
2019-03-06T18:53:36.937Z,11.44
2019-03-06T18:56:06.186Z,11.39
2019-03-06T18:58:35.464Z,11.31
2019-03-06T19:01:04.676Z,11.32
2019-03-06T19:03:34.150Z,11.37
2019-03-06T19:06:03.495Z,11.33
2019-03-06T19:08:33.093Z,11.32
2019-03-06T19:11:02.639Z,11.29
2019-03-06T19:13:32.130Z,11.38
2019-03-06T19:16:02.189Z,11.33
2019-03-06T19:18:31.463Z,11.35
2019-03-06T19:21:00.965Z,11.24
2019-03-06T19:23:31.446Z,11.29
2019-03-06T19:26:01.168Z,11.28
2019-03-06T19:28:30.432Z,11.28
2019-03-06T19:30:59.843Z,11.34
2019-03-06T19:33:29.681Z,11.27
2019-03-06T19:36:00.213Z,11.28
2019-03-06T19:38:29.973Z,11.26
2019-03-06T19:41:18.301Z,11.18
2019-03-06T19:52:03.913Z,11.24
2019-03-06T19:54:33.475Z,11.35
2019-03-06T19:57:02.890Z,11.38
2019-03-06T19:59:32.504Z,11.31
2019-03-06T20:02:02.124Z,11.33
2019-03-06T20:04:36.096Z,11.29
2019-03-06T20:15:53.356Z,11.34
2019-03-06T20:18:41.608Z,11.55
2019-03-06T20:21:12.612Z,11.60
2019-03-06T20:23:42.084Z,11.46
2019-03-06T20:26:15.996Z,11.42
2019-03-06T20:28:46.366Z,11.46
2019-03-06T20:31:16.736Z,11.41
2019-03-06T20:33:47.091Z,11.60
2019-03-06T20:36:16.622Z,11.54
2019-03-06T20:44:36.628Z,11.49
2019-03-06T20:47:06.125Z,11.39
2019-03-06T20:49:35.505Z,11.42
2019-03-06T21:00:44.096Z,11.42
2019-03-06T21:08:47.537Z,11.32
2019-03-06T21:41:18.971Z,11.41
2019-03-06T21:43:50.542Z,11.35
2019-03-06T21:46:20.905Z,11.49
2019-03-06T21:48:50.745Z,11.49
2019-03-06T21:51:20.205Z,11.61
2019-03-06T21:53:51.649Z,11.65
2019-03-06T21:59:12.348Z,11.65
2019-03-06T22:01:41.728Z,11.69
2019-03-06T22:04:11.493Z,11.69
2019-03-06T22:06:42.593Z,11.66
2019-03-06T22:09:14.334Z,11.64
2019-03-06T22:11:43.745Z,11.59
2019-03-06T22:14:33.141Z,11.53
2019-03-06T22:17:02.619Z,11.51
2019-03-06T22:19:31.889Z,11.53
2019-03-06T22:22:01.375Z,11.52
2019-03-06T22:24:30.716Z,11.52
2019-03-06T22:27:00.850Z,11.56
2019-03-06T22:29:31.524Z,11.54
2019-03-06T22:32:00.999Z,11.57
2019-03-06T22:34:31.009Z,11.55
2019-03-06T22:37:00.570Z,11.50
2019-03-06T22:44:46.355Z,11.57
2019-03-06T22:47:35.301Z,11.63
2019-03-06T22:50:10.096Z,11.62
2019-03-06T22:52:42.919Z,11.57
2019-03-06T22:55:15.329Z,11.54
2019-03-06T22:57:44.592Z,11.52
2019-03-06T23:03:16.090Z,11.55
2019-03-06T23:05:45.536Z,11.64
2019-03-06T23:08:34.071Z,11.60
2019-03-06T23:11:03.494Z,11.57
2019-03-06T23:13:33.402Z,11.53
2019-03-06T23:16:02.994Z,11.52
2019-03-06T23:18:33.422Z,11.51
2019-03-06T23:21:03.853Z,11.51
2019-03-06T23:23:33.225Z,11.51
2019-03-06T23:26:06.899Z,11.54
2019-03-06T23:28:36.645Z,11.46
2019-03-06T23:31:06.486Z,11.42
2019-03-06T23:33:41.749Z,11.46
2019-03-06T23:36:18.976Z,11.36
2019-03-06T23:41:38.145Z,11.45
2019-03-06T23:44:11.530Z,11.45
2019-03-06T23:46:43.963Z,11.44
2019-03-06T23:49:13.918Z,11.42
2019-03-06T23:52:03.033Z,11.33
2019-03-06T23:54:35.383Z,11.39
2019-03-06T23:57:05.319Z,11.31
2019-03-06T23:59:35.918Z,11.33
